Time;durP1;ratioP1;P1;durP2;ratioP2;P2;SDS_P1;SDS_P2;PMS_P1;PMS_P2;Temp;Humidity;BMP_temperature;BMP_pressure;BME280_temperature;BME280_humidity;BME280_pressure;Samples;Min_cycle;Max_cycle;Signal;HPM_P1;HPM_P2
2022/08/31 00:06:21;;;;;;;41.65;9.07;;;28.60;99.90;;;;;;4974759;28;20387;-54
2022/08/31 00:08:47;;;;;;;38.00;8.73;;;28.50;99.90;;;;;;4974661;28;20038;-53
2022/08/31 00:11:14;;;;;;;32.17;7.80;;;28.50;99.90;;;;;;4974659;28;20023;-53
2022/08/31 00:13:40;;;;;;;47.08;9.63;;;28.50;99.90;;;;;;4974844;28;20475;-53
2022/08/31 00:16:11;;;;;;;34.10;8.68;;;28.50;99.90;;;;;;4974533;28;20046;-53
2022/08/31 00:18:37;;;;;;;29.00;7.97;;;28.40;99.90;;;;;;4974329;28;20049;-53
2022/08/31 00:21:04;;;;;;;26.30;8.00;;;28.40;99.90;;;;;;4974515;28;20034;-54
2022/08/31 00:23:30;;;;;;;25.02;6.55;;;28.50;99.90;;;;;;4974471;28;20038;-55
2022/08/31 00:25:56;;;;;;;31.73;6.63;;;28.40;99.90;;;;;;4973336;28;20523;-55
2022/08/31 00:28:22;;;;;;;22.45;5.82;;;28.50;99.90;;;;;;4974300;28;20121;-54
2022/08/31 00:30:48;;;;;;;33.28;7.10;;;28.50;99.90;;;;;;4972949;28;20030;-54
2022/08/31 00:33:14;;;;;;;27.30;6.78;;;28.50;99.90;;;;;;4974293;28;20027;-53
2022/08/31 00:35:41;;;;;;;37.55;7.30;;;28.50;99.90;;;;;;4974165;28;20031;-54
2022/08/31 00:38:08;;;;;;;40.33;7.20;;;28.50;99.90;;;;;;4974120;28;20033;-54
2022/08/31 00:40:35;;;;;;;34.20;8.15;;;28.50;99.90;;;;;;4972871;28;20039;-55
2022/08/31 00:43:01;;;;;;;36.38;8.10;;;28.50;99.90;;;;;;4974084;28;20093;-54
2022/08/31 00:45:28;;;;;;;25.45;6.20;;;28.50;99.90;;;;;;4974245;28;20094;-54
2022/08/31 00:47:54;;;;;;;30.30;7.28;;;28.50;99.90;;;;;;4974004;28;20027;-55
2022/08/31 00:50:23;;;;;;;36.87;7.97;;;28.50;99.90;;;;;;4973908;28;20030;-55
2022/08/31 00:52:54;;;;;;;30.83;7.25;;;28.50;99.90;;;;;;4973830;28;20090;-53
2022/08/31 00:55:30;;;;;;;31.02;6.32;;;28.50;99.90;;;;;;4973857;28;20033;-55
2022/08/31 00:57:59;;;;;;;45.63;6.97;;;28.50;99.90;;;;;;4973723;28;20081;-52
2022/08/31 01:00:30;;;;;;;44.03;7.60;;;28.50;99.90;;;;;;4995049;22;20054;-52
2022/08/31 01:02:58;;;;;;;50.97;9.10;;;28.50;99.90;;;;;;4993171;28;20038;-52
2022/08/31 01:05:24;;;;;;;35.13;7.35;;;28.60;99.90;;;;;;4993095;28;20482;-53
2022/08/31 01:07:51;;;;;;;40.17;9.15;;;28.60;99.90;;;;;;4992996;28;20031;-52
2022/08/31 01:10:20;;;;;;;33.05;7.47;;;28.60;99.90;;;;;;4992889;28;20054;-53
2022/08/31 01:12:47;;;;;;;43.53;8.75;;;28.60;99.90;;;;;;4991708;28;20113;-53
2022/08/31 01:15:14;;;;;;;34.63;7.80;;;28.50;99.90;;;;;;4992863;28;20094;-53
2022/08/31 01:17:43;;;;;;;35.95;7.82;;;28.50;99.90;;;;;;4992579;28;20038;-53
2022/08/31 01:20:24;;;;;;;40.03;7.93;;;28.50;99.90;;;;;;4992435;28;20470;-53
2022/08/31 01:23:05;;;;;;;41.20;7.05;;;28.40;99.90;;;;;;4992851;28;20027;-53
2022/08/31 01:25:31;;;;;;;35.83;7.00;;;28.50;99.90;;;;;;4992904;28;20049;-53
2022/08/31 01:28:01;;;;;;;30.63;7.20;;;28.50;99.90;;;;;;4992579;28;20023;-53
2022/08/31 01:30:26;;;;;;;31.30;7.43;;;28.50;99.90;;;;;;4992526;28;20042;-53
2022/08/31 01:32:52;;;;;;;28.85;6.80;;;28.50;99.90;;;;;;4992611;28;20034;-53
2022/08/31 01:35:18;;;;;;;29.55;7.25;;;28.50;99.90;;;;;;4992595;28;20023;-53
2022/08/31 01:37:44;;;;;;;35.55;7.63;;;28.50;99.90;;;;;;4992646;28;20510;-54
2022/08/31 01:40:11;;;;;;;31.30;8.10;;;28.50;99.90;;;;;;4992562;28;20031;-53
2022/08/31 01:42:37;;;;;;;28.33;7.22;;;28.40;99.90;;;;;;4992337;28;20050;-53
2022/08/31 01:45:04;;;;;;;34.50;7.40;;;28.40;99.90;;;;;;4992664;28;20109;-53
2022/08/31 01:47:30;;;;;;;27.15;7.60;;;28.40;99.90;;;;;;4991342;28;20106;-53
2022/08/31 01:49:56;;;;;;;31.63;7.55;;;28.30;99.90;;;;;;4992312;28;20043;-53
2022/08/31 01:52:22;;;;;;;42.25;8.75;;;28.30;99.90;;;;;;4992227;28;20050;-53
2022/08/31 01:54:47;;;;;;;42.33;7.90;;;28.30;99.90;;;;;;4992556;28;20026;-53
2022/08/31 01:57:14;;;;;;;25.73;7.20;;;28.20;99.90;;;;;;4992275;28;20085;-53
2022/08/31 01:59:40;;;;;;;41.25;9.50;;;28.20;99.90;;;;;;5003875;23;20178;-53
2022/08/31 02:02:06;;;;;;;28.90;7.97;;;28.20;99.90;;;;;;4992043;28;20061;-55
2022/08/31 02:04:32;;;;;;;38.40;7.40;;;28.20;99.90;;;;;;4992215;28;20441;-53
2022/08/31 02:07:00;;;;;;;31.73;9.20;;;28.20;99.90;;;;;;4992154;28;20096;-52
2022/08/31 02:09:26;;;;;;;;;;;28.10;99.90;;;;;;4992503;28;20104;-52
2022/08/31 02:11:52;;;;;;;28.17;7.00;;;28.10;99.90;;;;;;4991936;28;20358;-53
2022/08/31 02:14:19;;;;;;;34.22;7.57;;;28.10;99.90;;;;;;4992008;28;20022;-53
2022/08/31 02:16:45;;;;;;;26.10;6.78;;;28.10;99.90;;;;;;4990737;28;20471;-52
2022/08/31 02:19:11;;;;;;;32.58;7.43;;;28.10;99.90;;;;;;4991759;28;20030;-53
2022/08/31 02:21:37;;;;;;;36.30;8.02;;;28.10;99.90;;;;;;4991908;28;20033;-52
2022/08/31 02:24:04;;;;;;;44.55;9.63;;;28.10;99.90;;;;;;4991981;28;20452;-54
2022/08/31 02:26:30;;;;;;;31.23;8.27;;;28.10;99.90;;;;;;4991899;28;20462;-55
2022/08/31 02:28:56;;;;;;;29.70;7.03;;;28.10;99.90;;;;;;4991898;28;20038;-52
2022/08/31 02:31:21;;;;;;;48.83;8.75;;;28.10;99.90;;;;;;4994027;28;20037;-52
2022/08/31 02:33:47;;;;;;;35.30;7.88;;;28.10;99.90;;;;;;4995806;28;20514;-54
2022/08/31 02:36:13;;;;;;;35.15;8.32;;;28.10;99.90;;;;;;4995908;28;20382;-53
2022/08/31 02:38:39;;;;;;;34.30;7.50;;;28.10;99.90;;;;;;4995804;28;20382;-54
2022/08/31 02:41:05;;;;;;;43.92;7.70;;;28.10;99.90;;;;;;4995919;28;20019;-54
2022/08/31 02:43:32;;;;;;;37.35;8.15;;;28.10;99.90;;;;;;4995666;28;20085;-54
2022/08/31 02:45:58;;;;;;;28.98;7.32;;;28.10;99.90;;;;;;4995557;28;20026;-53
2022/08/31 02:48:24;;;;;;;44.70;7.63;;;28.10;99.90;;;;;;4994337;28;20026;-53
2022/08/31 02:50:51;;;;;;;26.63;8.15;;;28.10;99.90;;;;;;4995411;28;20023;-54
2022/08/31 02:53:20;;;;;;;28.38;7.70;;;28.10;99.90;;;;;;4995411;28;20022;-52
2022/08/31 02:55:45;;;;;;;34.85;7.72;;;28.10;99.90;;;;;;4995449;28;20026;-54
2022/08/31 02:58:12;;;;;;;37.33;7.35;;;28.20;99.90;;;;;;4995398;28;20081;-53
2022/08/31 03:00:42;;;;;;;29.85;7.70;;;28.10;99.90;;;;;;4997234;23;20073;-52
2022/08/31 03:03:07;;;;;;;39.13;8.60;;;28.20;99.90;;;;;;4976000;28;20553;-52
2022/08/31 03:05:33;;;;;;;33.38;7.68;;;28.20;99.90;;;;;;4976162;28;20031;-52
2022/08/31 03:07:59;;;;;;;37.55;7.80;;;28.20;99.90;;;;;;4975755;28;20042;-53
2022/08/31 03:10:25;;;;;;;28.05;6.22;;;28.10;99.90;;;;;;4975960;28;20082;-53
2022/08/31 03:12:52;;;;;;;33.10;7.65;;;28.20;99.90;;;;;;4975678;28;20063;-53
2022/08/31 03:15:20;;;;;;;37.00;8.02;;;28.20;99.90;;;;;;4975753;28;20062;-53
2022/08/31 03:17:49;;;;;;;28.45;7.15;;;28.20;99.90;;;;;;4975546;28;20022;-53
2022/08/31 03:20:17;;;;;;;26.95;6.53;;;28.20;99.90;;;;;;4975665;28;20386;-52
2022/08/31 03:22:44;;;;;;;36.67;6.80;;;28.20;99.90;;;;;;4975446;28;20074;-52
2022/08/31 03:25:10;;;;;;;24.30;6.13;;;28.20;99.90;;;;;;4975381;28;20505;-52
2022/08/31 03:27:37;;;;;;;28.63;8.05;;;28.20;99.90;;;;;;4975615;28;20092;-53
2022/08/31 03:30:07;;;;;;;40.55;8.00;;;28.20;99.90;;;;;;4975517;28;20027;-53
2022/08/31 03:32:33;;;;;;;21.70;6.25;;;28.20;99.90;;;;;;4975387;28;20030;-53
2022/08/31 03:35:00;;;;;;;21.67;7.28;;;28.10;99.90;;;;;;4975429;28;20034;-53
2022/08/31 03:37:26;;;;;;;25.73;6.70;;;28.10;99.90;;;;;;4975268;28;20386;-53
2022/08/31 03:39:52;;;;;;;28.60;7.10;;;28.10;99.90;;;;;;4975203;28;20116;-53
2022/08/31 03:42:18;;;;;;;25.70;7.15;;;28.00;99.90;;;;;;4974550;28;20058;-53
2022/08/31 03:44:46;;;;;;;30.58;7.45;;;28.00;99.90;;;;;;4974995;28;20050;-53
2022/08/31 03:47:12;;;;;;;25.80;8.02;;;28.00;99.90;;;;;;4974918;28;20030;-53
2022/08/31 03:49:38;;;;;;;46.30;8.57;;;28.00;99.90;;;;;;4975375;28;20030;-53
2022/08/31 03:52:04;;;;;;;26.80;8.45;;;28.00;99.90;;;;;;4974977;28;20492;-53
2022/08/31 03:54:30;;;;;;;23.80;7.87;;;27.90;99.90;;;;;;4974839;28;20130;-53
2022/08/31 03:56:56;;;;;;;30.38;7.18;;;27.90;99.90;;;;;;4974963;28;20062;-53
2022/08/31 03:59:21;;;;;;;32.20;7.53;;;27.80;99.90;;;;;;4988744;23;20031;-54
2022/08/31 04:01:47;;;;;;;23.58;7.10;;;27.80;99.90;;;;;;4974487;28;20049;-54
2022/08/31 04:04:14;;;;;;;23.67;6.78;;;27.80;99.90;;;;;;4974675;28;20049;-53
2022/08/31 04:06:41;;;;;;;28.27;7.20;;;27.80;99.90;;;;;;4974927;28;20027;-54
2022/08/31 04:09:07;;;;;;;27.48;6.97;;;27.70;99.90;;;;;;4974946;28;20374;-54
2022/08/31 04:11:33;;;;;;;27.23;7.50;;;27.80;99.90;;;;;;4974790;28;20031;-54
2022/08/31 04:13:59;;;;;;;32.38;7.53;;;27.70;99.90;;;;;;4974666;28;20019;-53
2022/08/31 04:16:25;;;;;;;30.23;6.25;;;27.70;99.90;;;;;;4974638;28;20033;-53
2022/08/31 04:18:51;;;;;;;26.27;7.25;;;27.70;99.90;;;;;;4974368;28;20027;-53
2022/08/31 04:21:20;;;;;;;30.50;7.22;;;27.70;99.90;;;;;;4974438;28;20035;-53
2022/08/31 04:23:48;;;;;;;33.50;8.05;;;27.70;99.90;;;;;;4974334;28;20076;-53
2022/08/31 04:26:21;;;;;;;23.80;7.05;;;27.70;99.90;;;;;;4974459;28;20049;-53
2022/08/31 04:28:47;;;;;;;23.45;7.53;;;27.70;99.90;;;;;;4974307;28;20059;-53
2022/08/31 04:31:14;;;;;;;31.02;8.68;;;27.70;99.90;;;;;;4974194;28;20035;-52
2022/08/31 04:33:41;;;;;;;29.63;6.50;;;27.70;99.90;;;;;;4974513;28;20031;-53
2022/08/31 04:36:09;;;;;;;32.10;7.32;;;27.60;99.90;;;;;;4974247;28;20325;-52
2022/08/31 04:38:35;;;;;;;27.25;7.32;;;27.60;99.90;;;;;;4974245;28;20434;-53
2022/08/31 04:41:08;;;;;;;24.80;7.60;;;27.60;99.90;;;;;;4974157;28;20050;-53
2022/08/31 04:43:39;;;;;;;27.50;8.30;;;27.60;99.90;;;;;;4973952;28;20062;-53
2022/08/31 04:46:07;;;;;;;20.02;7.00;;;27.50;99.90;;;;;;4974031;28;20475;-53
2022/08/31 04:48:34;;;;;;;32.65;7.20;;;27.50;99.90;;;;;;4973865;28;20038;-53
2022/08/31 04:51:05;;;;;;;31.70;9.63;;;27.40;99.90;;;;;;4973792;28;20494;-52
2022/08/31 04:53:32;;;;;;;26.42;7.97;;;27.40;99.90;;;;;;4972992;28;20114;-54
2022/08/31 04:55:58;;;;;;;30.88;6.88;;;27.30;99.90;;;;;;4973737;28;20026;-53
2022/08/31 04:58:24;;;;;;;29.77;7.45;;;27.30;99.90;;;;;;4973782;28;20098;-53
2022/08/31 05:00:51;;;;;;;25.17;7.30;;;27.30;99.90;;;;;;4973522;28;20054;-54
2022/08/31 05:03:18;;;;;;;21.58;7.13;;;27.30;99.90;;;;;;4973684;28;20398;-53
2022/08/31 05:05:51;;;;;;;32.30;8.65;;;27.20;99.90;;;;;;4972501;28;20438;-53
2022/08/31 05:08:17;;;;;;;35.55;8.45;;;27.20;99.90;;;;;;4973618;28;20034;-54
2022/08/31 05:10:43;;;;;;;24.43;7.53;;;27.20;99.90;;;;;;4973745;28;20422;-53
2022/08/31 05:13:09;;;;;;;24.05;8.00;;;27.10;99.90;;;;;;4973330;28;20305;-53
2022/08/31 05:15:41;;;;;;;27.08;7.05;;;27.10;99.90;;;;;;4973566;28;20061;-53
2022/08/31 05:18:07;;;;;;;28.63;8.52;;;27.10;99.90;;;;;;4973406;28;20023;-54
2022/08/31 05:20:33;;;;;;;27.33;7.05;;;27.10;99.90;;;;;;4973438;28;20026;-54
2022/08/31 05:22:59;;;;;;;34.15;8.38;;;27.10;99.90;;;;;;4973265;28;20033;-53
2022/08/31 05:25:24;;;;;;;33.38;6.72;;;27.10;99.90;;;;;;4973172;28;20041;-53
2022/08/31 05:27:53;;;;;;;31.05;5.63;;;27.10;99.90;;;;;;4971866;28;20102;-53
2022/08/31 05:30:20;;;;;;;31.50;6.72;;;27.10;99.90;;;;;;4973336;28;20123;-53
2022/08/31 05:32:45;;;;;;;31.05;6.57;;;27.10;99.90;;;;;;4973275;28;20035;-53
2022/08/31 05:35:11;;;;;;;34.40;7.50;;;27.00;99.90;;;;;;4973255;28;20360;-53
2022/08/31 05:37:38;;;;;;;28.13;7.32;;;27.00;99.90;;;;;;4971972;28;20047;-54
2022/08/31 05:40:05;;;;;;;40.58;6.03;;;27.10;99.90;;;;;;4971806;28;20030;-53
2022/08/31 05:42:31;;;;;;;;;;;27.10;99.90;;;;;;4973246;28;20023;-53
2022/08/31 05:44:57;;;;;;;38.65;8.05;;;27.10;99.90;;;;;;4972879;28;20282;-53
2022/08/31 05:47:23;;;;;;;38.25;6.85;;;27.10;99.90;;;;;;4972856;28;20102;-52
2022/08/31 05:49:49;;;;;;;48.53;8.57;;;27.10;99.90;;;;;;4972737;28;20125;-54
2022/08/31 05:52:15;;;;;;;47.88;6.97;;;27.10;99.90;;;;;;4973115;28;20550;-52
2022/08/31 05:54:41;;;;;;;32.63;5.68;;;27.20;99.90;;;;;;4972849;28;20061;-54
2022/08/31 05:57:07;;;;;;;44.28;6.80;;;27.20;99.90;;;;;;4972915;28;20041;-53
2022/08/31 05:59:34;;;;;;;43.90;8.45;;;27.30;99.90;;;;;;4972646;28;20031;-53
2022/08/31 06:02:01;;;;;;;32.33;6.60;;;27.40;99.90;;;;;;4972698;28;20043;-54
2022/08/31 06:04:27;;;;;;;32.85;5.78;;;27.50;99.90;;;;;;4972460;28;20043;-53
2022/08/31 06:06:53;;;;;;;33.70;5.93;;;27.50;99.90;;;;;;4972659;28;20081;-53
2022/08/31 06:09:20;;;;;;;35.00;7.78;;;27.60;99.90;;;;;;4972692;28;20065;-53
2022/08/31 06:11:46;;;;;;;43.63;8.52;;;27.70;99.90;;;;;;4972730;28;20078;-54
2022/08/31 06:14:12;;;;;;;35.95;7.47;;;27.80;99.90;;;;;;4971405;28;20019;-54
2022/08/31 06:16:38;;;;;;;31.35;8.05;;;27.90;99.90;;;;;;4972498;28;20435;-54
2022/08/31 06:19:08;;;;;;;32.63;7.82;;;27.90;99.90;;;;;;4972622;28;20066;-54
2022/08/31 06:21:38;;;;;;;37.67;7.88;;;28.00;99.90;;;;;;4972358;28;20030;-54
2022/08/31 06:24:05;;;;;;;34.60;7.32;;;28.00;99.90;;;;;;4972238;28;20042;-53
2022/08/31 06:26:33;;;;;;;34.90;8.32;;;28.10;99.90;;;;;;4972452;28;20101;-53
2022/08/31 06:29:05;;;;;;;37.65;7.72;;;28.10;99.90;;;;;;4972420;28;20054;-53
2022/08/31 06:31:34;;;;;;;34.20;8.90;;;28.20;99.90;;;;;;4972408;28;20031;-52
2022/08/31 06:34:02;;;;;;;36.20;9.10;;;28.20;99.90;;;;;;4972201;28;20042;-53
2022/08/31 06:36:30;;;;;;;35.55;8.88;;;28.30;99.90;;;;;;4972386;28;20049;-53
2022/08/31 06:38:58;;;;;;;32.88;8.15;;;28.30;99.90;;;;;;4972480;28;20031;-53
2022/08/31 06:41:27;;;;;;;30.58;6.85;;;28.40;99.90;;;;;;4972489;28;20034;-54
2022/08/31 06:43:54;;;;;;;32.80;7.65;;;28.40;99.90;;;;;;4972105;28;20101;-54
2022/08/31 06:46:21;;;;;;;35.40;7.82;;;28.40;99.90;;;;;;4972348;28;20031;-54
2022/08/31 06:48:49;;;;;;;33.35;8.35;;;28.40;99.90;;;;;;4972574;28;20525;-54
2022/08/31 06:51:15;;;;;;;38.55;8.43;;;28.50;99.90;;;;;;4971153;28;20113;-54
2022/08/31 06:53:41;;;;;;;35.15;8.35;;;28.60;99.90;;;;;;4972283;28;20494;-54
2022/08/31 06:56:11;;;;;;;28.52;7.13;;;28.60;99.90;;;;;;4972299;28;20035;-54
2022/08/31 06:58:37;;;;;;;34.28;6.35;;;28.60;99.90;;;;;;4972376;28;20057;-54
2022/08/31 07:01:05;;;;;;;30.58;8.45;;;28.60;99.90;;;;;;4971880;28;20082;-54
2022/08/31 07:03:34;;;;;;;30.10;7.05;;;28.70;99.90;;;;;;4972115;28;20035;-54
2022/08/31 07:06:06;;;;;;;35.42;7.63;;;28.70;99.90;;;;;;4972017;28;20105;-53
2022/08/31 07:08:31;;;;;;;34.83;6.78;;;28.70;99.90;;;;;;4971872;28;20033;-53
2022/08/31 07:10:58;;;;;;;40.25;7.18;;;28.70;99.90;;;;;;4972058;28;20019;-54
2022/08/31 07:13:24;;;;;;;37.83;8.10;;;28.70;99.90;;;;;;4971864;28;20086;-53
2022/08/31 07:15:49;;;;;;;30.15;7.60;;;28.80;99.90;;;;;;4971770;28;20039;-53
2022/08/31 07:18:15;;;;;;;38.28;8.27;;;28.70;99.90;;;;;;4975168;28;20026;-54
2022/08/31 07:20:41;;;;;;;34.40;10.13;;;28.80;99.90;;;;;;4975659;28;20041;-54
2022/08/31 07:23:07;;;;;;;38.63;9.82;;;28.80;99.90;;;;;;4975341;28;20027;-54
2022/08/31 07:25:35;;;;;;;40.33;9.80;;;28.80;99.90;;;;;;4975295;28;20030;-54
2022/08/31 07:28:00;;;;;;;26.90;7.25;;;28.80;99.90;;;;;;4975403;28;20034;-54
2022/08/31 07:30:26;;;;;;;37.13;7.70;;;28.90;99.90;;;;;;4975316;28;20277;-54
2022/08/31 07:32:52;;;;;;;26.63;6.18;;;28.90;99.90;;;;;;4975223;28;20482;-53
2022/08/31 07:35:18;;;;;;;36.20;9.50;;;28.90;99.90;;;;;;4975418;28;20085;-54
2022/08/31 07:43:14;;;;;;;38.90;8.32;;;28.90;99.90;;;;;;4975149;28;20042;-53
2022/08/31 07:45:40;;;;;;;21.95;6.85;;;28.80;99.90;;;;;;4975051;28;20487;-54
2022/08/31 07:48:06;;;;;;;23.65;7.65;;;28.70;99.90;;;;;;4974923;28;20399;-53
2022/08/31 07:50:32;;;;;;;23.53;8.33;;;28.70;99.90;;;;;;4974832;28;20078;-53
2022/08/31 07:52:59;;;;;;;25.45;7.63;;;28.70;99.90;;;;;;4974768;28;20526;-54
2022/08/31 07:55:27;;;;;;;30.27;8.50;;;28.70;99.90;;;;;;4974737;28;20027;-54
2022/08/31 07:57:54;;;;;;;30.60;7.78;;;28.60;99.90;;;;;;4974628;28;20031;-53
2022/08/31 08:00:23;;;;;;;33.78;9.10;;;28.60;99.90;;;;;;4974784;28;20070;-54
2022/08/31 08:02:50;;;;;;;21.50;6.15;;;28.60;99.90;;;;;;4974833;28;20057;-53
2022/08/31 08:05:22;;;;;;;32.25;7.80;;;28.50;99.90;;;;;;4974613;28;20036;-54
2022/08/31 08:07:50;;;;;;;34.15;8.65;;;28.60;99.90;;;;;;4974783;28;20027;-54
2022/08/31 08:10:20;;;;;;;25.27;8.48;;;28.60;99.90;;;;;;4974643;28;20118;-53
2022/08/31 08:12:56;;;;;;;17.70;6.90;;;28.60;99.90;;;;;;4974556;28;20029;-54
2022/08/31 08:15:23;;;;;;;41.25;8.77;;;28.60;99.90;;;;;;4974651;28;20035;-54
2022/08/31 08:17:49;;;;;;;28.95;7.28;;;28.60;99.90;;;;;;4974747;28;20050;-53
2022/08/31 08:20:15;;;;;;;21.15;6.95;;;28.70;99.90;;;;;;4974387;28;20478;-53
2022/08/31 08:22:42;;;;;;;27.02;8.38;;;28.70;99.90;;;;;;4974371;28;20030;-54
2022/08/31 08:25:09;;;;;;;27.55;7.22;;;28.70;99.90;;;;;;4974243;28;20094;-54
2022/08/31 08:27:35;;;;;;;36.47;7.15;;;28.70;99.90;;;;;;4974450;28;20031;-54
2022/08/31 08:30:01;;;;;;;26.42;8.30;;;28.70;99.90;;;;;;4974252;28;20419;-53
2022/08/31 08:32:30;;;;;;;35.30;8.40;;;28.70;99.90;;;;;;4974002;28;20502;-53
2022/08/31 08:34:56;;;;;;;31.98;8.10;;;28.70;99.90;;;;;;4974026;28;20085;-53
2022/08/31 08:37:22;;;;;;;23.60;6.72;;;28.80;99.90;;;;;;4974326;28;20019;-54
2022/08/31 08:39:48;;;;;;;33.30;8.27;;;28.80;99.90;;;;;;4972791;28;20463;-53
2022/08/31 08:42:14;;;;;;;29.23;6.72;;;28.80;99.90;;;;;;4974028;28;20487;-54
2022/08/31 08:44:42;;;;;;;32.90;9.10;;;28.80;99.90;;;;;;4973893;28;20045;-53
2022/08/31 08:47:21;;;;;;;24.80;7.25;;;28.90;99.90;;;;;;4973949;28;20039;-54
2022/08/31 08:49:56;;;;;;;33.20;6.93;;;28.90;99.90;;;;;;4973875;28;20110;-54
2022/08/31 08:52:27;;;;;;;33.13;8.52;;;28.90;99.90;;;;;;4974035;28;20112;-54
2022/08/31 08:54:55;;;;;;;32.97;9.82;;;29.00;99.90;;;;;;4974162;28;20023;-53
2022/08/31 08:57:28;;;;;;;31.33;8.00;;;29.00;99.90;;;;;;4973528;28;20074;-53
2022/08/31 08:59:57;;;;;;;33.75;8.35;;;29.00;99.90;;;;;;4973680;28;20056;-53
2022/08/31 09:02:38;;;;;;;31.65;7.30;;;29.00;99.90;;;;;;4973819;28;20109;-53
2022/08/31 09:05:23;;;;;;;31.13;7.25;;;29.10;99.90;;;;;;4973357;28;20038;-54
2022/08/31 09:08:15;;;;;;;29.17;7.63;;;29.10;99.90;;;;;;4973363;28;20022;-54
2022/08/31 09:11:03;;;;;;;35.40;7.32;;;29.10;99.90;;;;;;4973327;28;20034;-54
2022/08/31 09:13:54;;;;;;;26.17;7.43;;;29.10;99.90;;;;;;4973440;28;20549;-53
2022/08/31 09:16:48;;;;;;;29.83;6.55;;;29.10;99.90;;;;;;4973345;28;20426;-54
2022/08/31 09:19:16;;;;;;;30.55;8.10;;;29.20;99.90;;;;;;4973125;28;20483;-53
2022/08/31 09:21:52;;;;;;;46.55;9.63;;;29.20;99.90;;;;;;4973136;28;20023;-54
2022/08/31 09:24:21;;;;;;;33.45;8.05;;;29.20;99.90;;;;;;4973190;28;20174;-53
2022/08/31 09:27:16;;;;;;;32.88;8.68;;;29.30;99.90;;;;;;4973260;28;20078;-54
2022/08/31 09:30:04;;;;;;;37.50;8.82;;;29.30;99.90;;;;;;4973235;28;20557;-54
2022/08/31 09:32:34;;;;;;;31.65;7.07;;;29.30;99.90;;;;;;4973092;28;20061;-53
2022/08/31 09:35:05;;;;;;;30.65;7.05;;;29.40;99.90;;;;;;4973029;28;20022;-54
2022/08/31 09:37:44;;;;;;;37.85;7.88;;;29.40;99.90;;;;;;4973190;28;20026;-53
2022/08/31 09:40:20;;;;;;;34.75;7.65;;;29.40;99.90;;;;;;4972420;28;20026;-53
2022/08/31 09:42:59;;;;;;;37.15;7.03;;;29.50;99.90;;;;;;4972817;28;20427;-53
2022/08/31 09:45:46;;;;;;;33.72;7.45;;;29.50;99.90;;;;;;4972884;28;20117;-53
2022/08/31 09:48:11;;;;;;;31.80;7.87;;;29.50;99.90;;;;;;4972566;28;20138;-53
2022/08/31 09:50:46;;;;;;;36.05;8.05;;;29.50;99.90;;;;;;4972786;28;20265;-53
2022/08/31 09:56:16;;;;;;;45.42;7.15;;;29.50;99.90;;;;;;4972899;28;20113;-53
2022/08/31 09:59:01;;;;;;;34.35;6.93;;;29.50;99.90;;;;;;4971374;28;20027;-53
2022/08/31 10:01:42;;;;;;;32.47;6.43;;;29.60;99.90;;;;;;4972711;28;20111;-53
2022/08/31 10:04:19;;;;;;;34.42;7.22;;;29.70;99.90;;;;;;4972399;28;20049;-54
2022/08/31 10:07:12;;;;;;;34.63;7.33;;;29.70;99.90;;;;;;4971337;28;20442;-57
2022/08/31 10:09:50;;;;;;;31.52;6.97;;;29.70;99.90;;;;;;4972639;28;20549;-53
2022/08/31 10:12:20;;;;;;;;;;;29.80;99.90;;;;;;4971742;28;20434;-53
2022/08/31 10:14:52;;;;;;;48.85;7.65;;;29.80;99.90;;;;;;4972499;28;19905;-53
2022/08/31 10:17:36;;;;;;;34.72;7.22;;;29.80;99.90;;;;;;4972588;28;20023;-53
2022/08/31 10:20:14;;;;;;;33.28;8.15;;;29.80;99.90;;;;;;4972512;28;20030;-53
2022/08/31 10:22:52;;;;;;;30.13;6.93;;;29.80;99.90;;;;;;4972389;28;20042;-53
2022/08/31 10:25:27;;;;;;;32.30;6.90;;;29.90;99.90;;;;;;4972093;28;20037;-53
2022/08/31 10:28:05;;;;;;;27.45;6.50;;;29.90;99.90;;;;;;4972171;28;20433;-54
2022/08/31 10:30:36;;;;;;;34.40;6.22;;;29.90;99.90;;;;;;4972479;28;20085;-53
2022/08/31 10:33:07;;;;;;;35.33;6.90;;;29.90;99.90;;;;;;4972363;28;20039;-53
2022/08/31 10:35:36;;;;;;;33.35;6.90;;;30.00;99.90;;;;;;4972070;28;20115;-53
2022/08/31 10:38:22;;;;;;;21.83;5.93;;;30.00;99.90;;;;;;4972143;28;20022;-54
2022/08/31 10:41:10;;;;;;;22.77;5.85;;;30.00;99.90;;;;;;4972199;28;20131;-53
2022/08/31 10:44:02;;;;;;;29.10;5.43;;;30.10;99.90;;;;;;4971894;28;20058;-53
2022/08/31 10:46:34;;;;;;;21.30;6.10;;;30.10;99.90;;;;;;4969636;28;20043;-53
2022/08/31 10:49:03;;;;;;;22.67;6.72;;;30.10;99.90;;;;;;4972511;28;20027;-54
2022/08/31 10:52:05;;;;;;;38.13;6.68;;;30.10;99.90;;;;;;4973089;28;20533;-53
2022/08/31 10:54:47;;;;;;;33.10;7.53;;;30.10;99.90;;;;;;4971429;28;20094;-53
2022/08/31 10:57:37;;;;;;;26.05;7.18;;;30.20;99.90;;;;;;4975865;28;20118;-53
2022/08/31 11:00:40;;;;;;;43.55;6.80;;;30.20;99.90;;;;;;4975640;28;20046;-53
2022/08/31 11:03:06;;;;;;;29.15;7.00;;;30.20;99.90;;;;;;4975929;28;20360;-53
2022/08/31 11:05:44;;;;;;;37.10;7.20;;;30.30;99.90;;;;;;4976016;28;20058;-54
2022/08/31 11:08:29;;;;;;;37.65;9.32;;;30.20;99.90;;;;;;4975638;28;20038;-54
2022/08/31 11:10:57;;;;;;;26.90;6.55;;;30.30;99.90;;;;;;4975723;28;20042;-53
2022/08/31 11:13:34;;;;;;;38.53;7.78;;;30.30;99.90;;;;;;4975628;28;20086;-53
2022/08/31 11:16:31;;;;;;;39.88;8.48;;;30.30;99.90;;;;;;4975549;28;20030;-54
2022/08/31 11:19:06;;;;;;;27.65;6.28;;;30.40;99.90;;;;;;4967424;28;20431;-54
2022/08/31 11:21:35;;;;;;;28.02;6.18;;;30.40;99.90;;;;;;4975653;28;20034;-53
2022/08/31 11:24:19;;;;;;;35.83;7.35;;;30.40;99.90;;;;;;4975680;28;20101;-54
2022/08/31 11:26:57;;;;;;;30.38;5.63;;;30.50;99.90;;;;;;4975497;28;20019;-54
2022/08/31 11:29:45;;;;;;;30.52;7.05;;;30.60;99.90;;;;;;4975345;28;20105;-53
2022/08/31 11:32:19;;;;;;;31.17;7.80;;;30.60;99.90;;;;;;4975160;28;20105;-53
2022/08/31 11:34:52;;;;;;;39.95;13.50;;;30.70;99.90;;;;;;4975093;28;20019;-54
2022/08/31 11:37:55;;;;;;;36.95;8.73;;;30.70;99.90;;;;;;4975131;28;20034;-53
2022/08/31 11:40:40;;;;;;;44.17;7.15;;;30.80;99.90;;;;;;4974998;28;20490;-53
2022/08/31 11:43:12;;;;;;;31.90;6.28;;;30.80;99.90;;;;;;4974665;28;20033;-53
2022/08/31 11:45:39;;;;;;;34.25;6.88;;;30.90;99.90;;;;;;4975264;28;20026;-53
2022/08/31 11:48:09;;;;;;;38.72;7.10;;;30.90;99.90;;;;;;4975132;28;20364;-53
2022/08/31 11:50:53;;;;;;;32.97;6.38;;;31.00;99.90;;;;;;4975139;28;20035;-53
2022/08/31 11:53:42;;;;;;;40.05;6.63;;;31.00;99.90;;;;;;4974990;28;20133;-54
2022/08/31 11:56:10;;;;;;;37.55;8.60;;;31.00;99.90;;;;;;4975248;28;20053;-53
2022/08/31 11:58:38;;;;;;;33.30;6.45;;;31.10;99.90;;;;;;4974847;28;20390;-52
2022/08/31 12:01:10;;;;;;;28.00;6.45;;;31.20;99.90;;;;;;4974922;28;20051;-54
2022/08/31 12:03:44;;;;;;;41.75;7.65;;;31.20;99.90;;;;;;4974369;28;20035;-55
2022/08/31 12:06:28;;;;;;;38.00;8.70;;;31.20;99.90;;;;;;4974945;28;20126;-53
2022/08/31 12:09:18;;;;;;;39.90;8.40;;;31.30;99.90;;;;;;4974748;28;20416;-55
2022/08/31 12:12:16;;;;;;;33.13;8.32;;;31.30;99.90;;;;;;4974575;28;20478;-53
2022/08/31 12:14:50;;;;;;;39.78;6.78;;;31.30;99.90;;;;;;4971405;28;20035;-54
2022/08/31 12:17:21;;;;;;;26.48;6.13;;;31.40;99.90;;;;;;4974519;28;20505;-54
2022/08/31 12:20:03;;;;;;;40.70;8.20;;;31.40;99.90;;;;;;4974537;28;20023;-53
2022/08/31 12:25:53;;;;;;;37.28;10.30;;;31.40;99.90;;;;;;4974485;28;20134;-54
2022/08/31 12:28:40;;;;;;;32.65;8.27;;;31.40;99.90;;;;;;4974376;28;20382;-54
2022/08/31 12:31:16;;;;;;;35.65;11.40;;;31.40;99.90;;;;;;4974334;28;20050;-54
2022/08/31 12:34:10;;;;;;;32.75;8.35;;;31.40;99.90;;;;;;4974092;28;20126;-54
2022/08/31 12:36:36;;;;;;;26.90;6.93;;;31.40;99.90;;;;;;4973046;28;20023;-54
2022/08/31 12:39:10;;;;;;;31.65;8.55;;;31.50;99.90;;;;;;4974214;28;20023;-55
2022/08/31 12:41:41;;;;;;;24.95;7.10;;;31.50;99.90;;;;;;4974254;28;20038;-54
2022/08/31 12:44:07;;;;;;;35.38;6.75;;;31.40;99.90;;;;;;4974066;28;20042;-54
2022/08/31 12:46:41;;;;;;;40.00;8.48;;;31.40;99.90;;;;;;4973939;28;20027;-54
2022/08/31 12:49:20;;;;;;;35.58;8.18;;;31.50;99.90;;;;;;4974255;28;20114;-54
2022/08/31 12:52:03;;;;;;;41.95;13.27;;;31.50;99.90;;;;;;4973978;28;20041;-53
2022/08/31 12:54:32;;;;;;;40.72;8.48;;;31.50;99.90;;;;;;4973675;28;20065;-54
2022/08/31 12:57:16;;;;;;;36.83;6.88;;;31.50;99.90;;;;;;4973774;28;20488;-54
2022/08/31 12:59:42;;;;;;;32.55;6.95;;;31.50;99.90;;;;;;4973549;28;20553;-54
2022/08/31 13:02:11;;;;;;;42.28;6.63;;;31.50;99.90;;;;;;4973931;28;20031;-57
2022/08/31 13:04:42;;;;;;;26.17;8.75;;;31.60;99.90;;;;;;4967906;28;20518;-51
2022/08/31 13:07:21;;;;;;;37.80;6.93;;;31.50;99.90;;;;;;4956015;28;20031;-53
2022/08/31 13:10:05;;;;;;;41.10;8.77;;;31.60;99.90;;;;;;4966124;28;20121;-55
2022/08/31 13:12:31;;;;;;;43.67;14.20;;;31.50;99.90;;;;;;4962863;28;20023;-52